sensor_id;sensor_type;location;lat;lon;timestamp;P1;durP1;ratioP1;P2;durP2;ratioP2
20397;SDS011;10358;49.590;11.030;2023-02-13T00:01:31;45.07;;;19.67;;
20397;SDS011;10358;49.590;11.030;2023-02-13T00:03:58;43.30;;;20.00;;
20397;SDS011;10358;49.590;11.030;2023-02-13T00:06:24;42.77;;;19.67;;
20397;SDS011;10358;49.590;11.030;2023-02-13T00:08:50;36.03;;;17.43;;
20397;SDS011;10358;49.590;11.030;2023-02-13T00:11:15;34.50;;;16.70;;
20397;SDS011;10358;49.590;11.030;2023-02-13T00:13:41;37.33;;;18.03;;
20397;SDS011;10358;49.590;11.030;2023-02-13T00:16:07;35.90;;;17.03;;
20397;SDS011;10358;49.590;11.030;2023-02-13T00:18:34;39.90;;;17.97;;
20397;SDS011;10358;49.590;11.030;2023-02-13T00:21:03;38.07;;;17.70;;
20397;SDS011;10358;49.590;11.030;2023-02-13T00:23:30;39.57;;;18.00;;
20397;SDS011;10358;49.590;11.030;2023-02-13T00:25:57;43.50;;;19.37;;
20397;SDS011;10358;49.590;11.030;2023-02-13T00:28:24;37.67;;;19.07;;
20397;SDS011;10358;49.590;11.030;2023-02-13T00:30:50;37.43;;;18.87;;
20397;SDS011;10358;49.590;11.030;2023-02-13T00:33:15;41.37;;;19.20;;
20397;SDS011;10358;49.590;11.030;2023-02-13T00:35:41;40.00;;;19.07;;
20397;SDS011;10358;49.590;11.030;2023-02-13T00:38:06;37.80;;;17.00;;
20397;SDS011;10358;49.590;11.030;2023-02-13T00:40:32;40.03;;;18.17;;
20397;SDS011;10358;49.590;11.030;2023-02-13T00:42:57;40.10;;;18.83;;
20397;SDS011;10358;49.590;11.030;2023-02-13T00:45:23;41.57;;;19.13;;
20397;SDS011;10358;49.590;11.030;2023-02-13T00:47:48;44.37;;;19.97;;
20397;SDS011;10358;49.590;11.030;2023-02-13T00:50:14;41.50;;;19.63;;
20397;SDS011;10358;49.590;11.030;2023-02-13T00:52:40;39.67;;;19.17;;
20397;SDS011;10358;49.590;11.030;2023-02-13T00:55:05;45.83;;;20.40;;
20397;SDS011;10358;49.590;11.030;2023-02-13T00:57:31;42.73;;;19.47;;
20397;SDS011;10358;49.590;11.030;2023-02-13T00:59:57;44.10;;;19.87;;
20397;SDS011;10358;49.590;11.030;2023-02-13T01:02:22;41.73;;;19.87;;
20397;SDS011;10358;49.590;11.030;2023-02-13T01:04:48;42.97;;;19.10;;
20397;SDS011;10358;49.590;11.030;2023-02-13T01:07:14;43.90;;;19.50;;
20397;SDS011;10358;49.590;11.030;2023-02-13T01:09:39;43.03;;;19.57;;
20397;SDS011;10358;49.590;11.030;2023-02-13T01:12:05;39.70;;;19.10;;
20397;SDS011;10358;49.590;11.030;2023-02-13T01:14:31;43.00;;;19.53;;
20397;SDS011;10358;49.590;11.030;2023-02-13T01:16:56;44.67;;;19.30;;
20397;SDS011;10358;49.590;11.030;2023-02-13T01:19:22;41.83;;;18.67;;
20397;SDS011;10358;49.590;11.030;2023-02-13T01:21:47;44.90;;;20.47;;
20397;SDS011;10358;49.590;11.030;2023-02-13T01:24:13;40.37;;;18.23;;
20397;SDS011;10358;49.590;11.030;2023-02-13T01:26:38;36.57;;;17.70;;
20397;SDS011;10358;49.590;11.030;2023-02-13T01:29:04;43.70;;;18.17;;
20397;SDS011;10358;49.590;11.030;2023-02-13T01:31:30;42.50;;;19.27;;
20397;SDS011;10358;49.590;11.030;2023-02-13T01:33:56;40.87;;;18.97;;
20397;SDS011;10358;49.590;11.030;2023-02-13T01:36:22;43.23;;;19.07;;
20397;SDS011;10358;49.590;11.030;2023-02-13T01:38:51;40.33;;;18.90;;
20397;SDS011;10358;49.590;11.030;2023-02-13T01:41:18;41.37;;;18.60;;
20397;SDS011;10358;49.590;11.030;2023-02-13T01:46:11;41.50;;;17.93;;
20397;SDS011;10358;49.590;11.030;2023-02-13T01:48:39;36.77;;;17.67;;
20397;SDS011;10358;49.590;11.030;2023-02-13T01:51:06;37.07;;;16.73;;
20397;SDS011;10358;49.590;11.030;2023-02-13T01:53:38;37.80;;;17.37;;
20397;SDS011;10358;49.590;11.030;2023-02-13T01:56:09;38.47;;;17.30;;
20397;SDS011;10358;49.590;11.030;2023-02-13T01:58:42;35.60;;;16.87;;
20397;SDS011;10358;49.590;11.030;2023-02-13T02:01:10;38.07;;;17.37;;
20397;SDS011;10358;49.590;11.030;2023-02-13T02:03:46;35.93;;;16.77;;
20397;SDS011;10358;49.590;11.030;2023-02-13T02:06:21;41.07;;;17.10;;
20397;SDS011;10358;49.590;11.030;2023-02-13T02:09:02;37.53;;;16.10;;
20397;SDS011;10358;49.590;11.030;2023-02-13T02:11:35;38.90;;;16.73;;
20397;SDS011;10358;49.590;11.030;2023-02-13T02:14:09;42.10;;;17.40;;
20397;SDS011;10358;49.590;11.030;2023-02-13T02:16:35;42.43;;;17.83;;
20397;SDS011;10358;49.590;11.030;2023-02-13T02:19:01;37.77;;;17.00;;
20397;SDS011;10358;49.590;11.030;2023-02-13T02:21:37;36.70;;;17.40;;
20397;SDS011;10358;49.590;11.030;2023-02-13T02:24:46;40.93;;;16.97;;
20397;SDS011;10358;49.590;11.030;2023-02-13T02:32:56;35.37;;;15.70;;
20397;SDS011;10358;49.590;11.030;2023-02-13T02:39:02;38.73;;;17.07;;
20397;SDS011;10358;49.590;11.030;2023-02-13T02:44:10;34.60;;;16.07;;
20397;SDS011;10358;49.590;11.030;2023-02-13T02:49:39;34.80;;;15.43;;
20397;SDS011;10358;49.590;11.030;2023-02-13T02:52:26;31.27;;;14.73;;
20397;SDS011;10358;49.590;11.030;2023-02-13T03:01:23;36.00;;;16.50;;
20397;SDS011;10358;49.590;11.030;2023-02-13T03:04:13;34.63;;;15.70;;
20397;SDS011;10358;49.590;11.030;2023-02-13T03:07:19;31.63;;;14.90;;
20397;SDS011;10358;49.590;11.030;2023-02-13T03:10:07;34.37;;;15.90;;
20397;SDS011;10358;49.590;11.030;2023-02-13T03:12:56;31.40;;;14.57;;
20397;SDS011;10358;49.590;11.030;2023-02-13T03:15:45;29.07;;;14.33;;
20397;SDS011;10358;49.590;11.030;2023-02-13T03:18:34;32.40;;;15.03;;
20397;SDS011;10358;49.590;11.030;2023-02-13T03:21:37;30.90;;;14.53;;
20397;SDS011;10358;49.590;11.030;2023-02-13T03:42:22;29.47;;;13.63;;
20397;SDS011;10358;49.590;11.030;2023-02-13T03:44:53;31.03;;;13.37;;
20397;SDS011;10358;49.590;11.030;2023-02-13T03:47:54;31.70;;;14.63;;
20397;SDS011;10358;49.590;11.030;2023-02-13T03:50:21;32.07;;;15.10;;
20397;SDS011;10358;49.590;11.030;2023-02-13T03:53:00;31.43;;;15.00;;
20397;SDS011;10358;49.590;11.030;2023-02-13T03:55:37;34.00;;;14.93;;
20397;SDS011;10358;49.590;11.030;2023-02-13T03:58:28;32.77;;;15.60;;
20397;SDS011;10358;49.590;11.030;2023-02-13T04:01:18;28.83;;;14.87;;
20397;SDS011;10358;49.590;11.030;2023-02-13T04:03:51;31.17;;;14.13;;
20397;SDS011;10358;49.590;11.030;2023-02-13T04:06:31;42.60;;;14.13;;
20397;SDS011;10358;49.590;11.030;2023-02-13T04:08:59;40.17;;;15.10;;
20397;SDS011;10358;49.590;11.030;2023-02-13T04:14:22;34.40;;;13.97;;
20397;SDS011;10358;49.590;11.030;2023-02-13T04:16:53;30.33;;;14.47;;
20397;SDS011;10358;49.590;11.030;2023-02-13T04:19:27;31.97;;;14.57;;
20397;SDS011;10358;49.590;11.030;2023-02-13T04:21:55;26.37;;;12.57;;
20397;SDS011;10358;49.590;11.030;2023-02-13T04:24:23;25.83;;;12.17;;
20397;SDS011;10358;49.590;11.030;2023-02-13T04:26:49;26.37;;;12.77;;
20397;SDS011;10358;49.590;11.030;2023-02-13T04:29:16;25.13;;;12.03;;
20397;SDS011;10358;49.590;11.030;2023-02-13T04:31:41;25.70;;;11.93;;
20397;SDS011;10358;49.590;11.030;2023-02-13T04:34:07;27.00;;;12.17;;
20397;SDS011;10358;49.590;11.030;2023-02-13T04:36:33;28.70;;;13.40;;
20397;SDS011;10358;49.590;11.030;2023-02-13T04:38:58;31.77;;;12.30;;
20397;SDS011;10358;49.590;11.030;2023-02-13T04:41:24;51.40;;;11.93;;
20397;SDS011;10358;49.590;11.030;2023-02-13T04:43:49;69.87;;;12.33;;
20397;SDS011;10358;49.590;11.030;2023-02-13T04:46:16;25.60;;;11.90;;
20397;SDS011;10358;49.590;11.030;2023-02-13T04:48:42;26.33;;;10.83;;
20397;SDS011;10358;49.590;11.030;2023-02-13T04:51:08;34.90;;;11.80;;
20397;SDS011;10358;49.590;11.030;2023-02-13T04:53:33;44.67;;;11.43;;
20397;SDS011;10358;49.590;11.030;2023-02-13T04:55:59;22.53;;;12.03;;
20397;SDS011;10358;49.590;11.030;2023-02-13T04:58:24;23.07;;;10.97;;
20397;SDS011;10358;49.590;11.030;2023-02-13T05:00:50;22.50;;;10.70;;
20397;SDS011;10358;49.590;11.030;2023-02-13T05:03:15;34.03;;;11.80;;
20397;SDS011;10358;49.590;11.030;2023-02-13T05:05:41;27.43;;;11.33;;
20397;SDS011;10358;49.590;11.030;2023-02-13T05:08:07;17.03;;;10.00;;
20397;SDS011;10358;49.590;11.030;2023-02-13T05:10:33;26.23;;;10.50;;
20397;SDS011;10358;49.590;11.030;2023-02-13T05:12:58;25.10;;;10.80;;
20397;SDS011;10358;49.590;11.030;2023-02-13T05:15:24;26.23;;;11.57;;
20397;SDS011;10358;49.590;11.030;2023-02-13T05:17:50;27.67;;;12.47;;
20397;SDS011;10358;49.590;11.030;2023-02-13T05:20:16;27.37;;;12.30;;
20397;SDS011;10358;49.590;11.030;2023-02-13T05:22:43;45.57;;;13.17;;
20397;SDS011;10358;49.590;11.030;2023-02-13T05:25:28;45.47;;;14.37;;
20397;SDS011;10358;49.590;11.030;2023-02-13T05:27:54;53.87;;;16.07;;
20397;SDS011;10358;49.590;11.030;2023-02-13T05:30:19;39.63;;;15.53;;
20397;SDS011;10358;49.590;11.030;2023-02-13T05:32:45;37.63;;;14.13;;
20397;SDS011;10358;49.590;11.030;2023-02-13T05:35:10;60.77;;;14.43;;
20397;SDS011;10358;49.590;11.030;2023-02-13T05:37:36;36.33;;;14.13;;
20397;SDS011;10358;49.590;11.030;2023-02-13T05:40:02;33.97;;;14.20;;
20397;SDS011;10358;49.590;11.030;2023-02-13T05:42:27;40.53;;;14.17;;
20397;SDS011;10358;49.590;11.030;2023-02-13T05:44:53;33.37;;;13.10;;
20397;SDS011;10358;49.590;11.030;2023-02-13T05:47:18;38.37;;;12.53;;
20397;SDS011;10358;49.590;11.030;2023-02-13T05:49:44;29.53;;;13.30;;
20397;SDS011;10358;49.590;11.030;2023-02-13T05:52:09;38.47;;;14.87;;
20397;SDS011;10358;49.590;11.030;2023-02-13T05:54:35;37.90;;;14.17;;
20397;SDS011;10358;49.590;11.030;2023-02-13T05:57:02;30.53;;;13.63;;
20397;SDS011;10358;49.590;11.030;2023-02-13T05:59:28;32.60;;;13.40;;
20397;SDS011;10358;49.590;11.030;2023-02-13T06:01:53;51.27;;;15.70;;
20397;SDS011;10358;49.590;11.030;2023-02-13T06:04:19;35.87;;;15.40;;
20397;SDS011;10358;49.590;11.030;2023-02-13T06:06:44;36.60;;;14.60;;
20397;SDS011;10358;49.590;11.030;2023-02-13T06:09:10;39.03;;;15.47;;
20397;SDS011;10358;49.590;11.030;2023-02-13T06:11:35;46.00;;;14.47;;
20397;SDS011;10358;49.590;11.030;2023-02-13T06:14:01;43.57;;;15.77;;
20397;SDS011;10358;49.590;11.030;2023-02-13T06:16:26;35.10;;;15.87;;
20397;SDS011;10358;49.590;11.030;2023-02-13T06:18:54;58.50;;;15.17;;
20397;SDS011;10358;49.590;11.030;2023-02-13T06:21:20;50.07;;;16.10;;
20397;SDS011;10358;49.590;11.030;2023-02-13T06:23:46;44.03;;;15.77;;
20397;SDS011;10358;49.590;11.030;2023-02-13T06:26:11;42.33;;;15.40;;
20397;SDS011;10358;49.590;11.030;2023-02-13T06:28:37;31.10;;;15.03;;
20397;SDS011;10358;49.590;11.030;2023-02-13T06:31:03;30.17;;;14.87;;
20397;SDS011;10358;49.590;11.030;2023-02-13T06:33:28;37.57;;;13.77;;
20397;SDS011;10358;49.590;11.030;2023-02-13T06:35:54;30.00;;;13.93;;
20397;SDS011;10358;49.590;11.030;2023-02-13T06:38:19;34.37;;;14.80;;
20397;SDS011;10358;49.590;11.030;2023-02-13T06:40:45;35.20;;;14.30;;
20397;SDS011;10358;49.590;11.030;2023-02-13T06:43:12;28.77;;;13.83;;
20397;SDS011;10358;49.590;11.030;2023-02-13T06:45:38;42.13;;;14.43;;
20397;SDS011;10358;49.590;11.030;2023-02-13T06:48:04;32.23;;;13.90;;
20397;SDS011;10358;49.590;11.030;2023-02-13T06:50:30;32.50;;;13.67;;
20397;SDS011;10358;49.590;11.030;2023-02-13T06:52:55;34.97;;;14.57;;
20397;SDS011;10358;49.590;11.030;2023-02-13T06:55:21;31.27;;;14.17;;
20397;SDS011;10358;49.590;11.030;2023-02-13T06:57:46;25.07;;;13.20;;
20397;SDS011;10358;49.590;11.030;2023-02-13T07:00:12;28.63;;;13.97;;
20397;SDS011;10358;49.590;11.030;2023-02-13T07:02:39;51.10;;;14.17;;
20397;SDS011;10358;49.590;11.030;2023-02-13T07:05:06;47.17;;;14.10;;
20397;SDS011;10358;49.590;11.030;2023-02-13T07:07:32;39.83;;;13.97;;
20397;SDS011;10358;49.590;11.030;2023-02-13T07:09:59;26.27;;;12.67;;
20397;SDS011;10358;49.590;11.030;2023-02-13T07:12:24;28.20;;;13.50;;
20397;SDS011;10358;49.590;11.030;2023-02-13T07:14:50;30.77;;;12.67;;
20397;SDS011;10358;49.590;11.030;2023-02-13T07:17:15;31.20;;;13.23;;
20397;SDS011;10358;49.590;11.030;2023-02-13T07:19:41;26.37;;;11.77;;
20397;SDS011;10358;49.590;11.030;2023-02-13T07:22:06;23.73;;;12.47;;
20397;SDS011;10358;49.590;11.030;2023-02-13T07:24:32;28.07;;;13.20;;
20397;SDS011;10358;49.590;11.030;2023-02-13T07:26:59;25.43;;;13.17;;
20397;SDS011;10358;49.590;11.030;2023-02-13T07:29:25;26.47;;;12.73;;
20397;SDS011;10358;49.590;11.030;2023-02-13T07:31:51;21.13;;;12.07;;
20397;SDS011;10358;49.590;11.030;2023-02-13T07:34:17;28.70;;;11.43;;
20397;SDS011;10358;49.590;11.030;2023-02-13T07:36:43;28.73;;;10.87;;
20397;SDS011;10358;49.590;11.030;2023-02-13T07:39:08;32.03;;;11.07;;
20397;SDS011;10358;49.590;11.030;2023-02-13T07:41:34;20.17;;;11.33;;
20397;SDS011;10358;49.590;11.030;2023-02-13T07:43:59;35.10;;;10.90;;
20397;SDS011;10358;49.590;11.030;2023-02-13T07:46:25;45.93;;;10.37;;
20397;SDS011;10358;49.590;11.030;2023-02-13T07:48:51;18.30;;;10.10;;
20397;SDS011;10358;49.590;11.030;2023-02-13T07:51:16;41.23;;;10.00;;
20397;SDS011;10358;49.590;11.030;2023-02-13T07:53:42;41.13;;;10.47;;
20397;SDS011;10358;49.590;11.030;2023-02-13T07:56:08;75.30;;;11.00;;
20397;SDS011;10358;49.590;11.030;2023-02-13T07:58:36;27.17;;;10.27;;
20397;SDS011;10358;49.590;11.030;2023-02-13T08:01:11;23.40;;;10.80;;
20397;SDS011;10358;49.590;11.030;2023-02-13T08:03:38;20.33;;;10.60;;
20397;SDS011;10358;49.590;11.030;2023-02-13T08:06:04;20.20;;;10.63;;
20397;SDS011;10358;49.590;11.030;2023-02-13T08:08:30;62.67;;;9.97;;
20397;SDS011;10358;49.590;11.030;2023-02-13T08:10:56;15.97;;;9.43;;
20397;SDS011;10358;49.590;11.030;2023-02-13T08:13:46;17.20;;;9.10;;
20397;SDS011;10358;49.590;11.030;2023-02-13T08:16:11;14.60;;;9.33;;
20397;SDS011;10358;49.590;11.030;2023-02-13T08:18:37;15.97;;;9.90;;
20397;SDS011;10358;49.590;11.030;2023-02-13T08:21:02;13.93;;;9.00;;
20397;SDS011;10358;49.590;11.030;2023-02-13T08:23:28;14.83;;;9.63;;
20397;SDS011;10358;49.590;11.030;2023-02-13T08:25:53;16.03;;;9.90;;
20397;SDS011;10358;49.590;11.030;2023-02-13T08:28:19;16.10;;;9.87;;
20397;SDS011;10358;49.590;11.030;2023-02-13T08:30:45;17.20;;;9.87;;
20397;SDS011;10358;49.590;11.030;2023-02-13T08:33:10;15.70;;;9.50;;
20397;SDS011;10358;49.590;11.030;2023-02-13T08:35:36;13.93;;;8.97;;
20397;SDS011;10358;49.590;11.030;2023-02-13T08:38:04;17.57;;;9.63;;
20397;SDS011;10358;49.590;11.030;2023-02-13T08:40:30;13.87;;;9.07;;
20397;SDS011;10358;49.590;11.030;2023-02-13T08:42:59;15.30;;;9.77;;
20397;SDS011;10358;49.590;11.030;2023-02-13T08:45:26;13.20;;;8.83;;
20397;SDS011;10358;49.590;11.030;2023-02-13T08:47:56;14.27;;;9.27;;
20397;SDS011;10358;49.590;11.030;2023-02-13T08:50:25;17.00;;;9.43;;
20397;SDS011;10358;49.590;11.030;2023-02-13T08:52:52;13.53;;;8.73;;
20397;SDS011;10358;49.590;11.030;2023-02-13T08:55:17;14.60;;;9.10;;
20397;SDS011;10358;49.590;11.030;2023-02-13T08:57:43;16.30;;;9.37;;
20397;SDS011;10358;49.590;11.030;2023-02-13T09:00:09;15.80;;;8.53;;
20397;SDS011;10358;49.590;11.030;2023-02-13T09:02:35;12.10;;;7.87;;
20397;SDS011;10358;49.590;11.030;2023-02-13T09:05:00;12.03;;;7.93;;
20397;SDS011;10358;49.590;11.030;2023-02-13T09:07:26;21.57;;;8.23;;
20397;SDS011;10358;49.590;11.030;2023-02-13T09:09:51;11.17;;;7.63;;
20397;SDS011;10358;49.590;11.030;2023-02-13T09:12:17;12.03;;;7.87;;
20397;SDS011;10358;49.590;11.030;2023-02-13T09:14:43;19.97;;;8.03;;
20397;SDS011;10358;49.590;11.030;2023-02-13T09:17:08;14.13;;;8.27;;
20397;SDS011;10358;49.590;11.030;2023-02-13T09:19:34;17.57;;;8.10;;
20397;SDS011;10358;49.590;11.030;2023-02-13T09:21:59;15.53;;;8.10;;
20397;SDS011;10358;49.590;11.030;2023-02-13T09:24:25;29.93;;;9.83;;
20397;SDS011;10358;49.590;11.030;2023-02-13T09:26:50;20.27;;;8.87;;
20397;SDS011;10358;49.590;11.030;2023-02-13T09:29:16;41.27;;;10.90;;
20397;SDS011;10358;49.590;11.030;2023-02-13T09:31:42;17.53;;;10.10;;
20397;SDS011;10358;49.590;11.030;2023-02-13T09:34:07;16.33;;;9.47;;
20397;SDS011;10358;49.590;11.030;2023-02-13T09:36:33;16.33;;;9.67;;
20397;SDS011;10358;49.590;11.030;2023-02-13T09:39:00;17.50;;;9.50;;
20397;SDS011;10358;49.590;11.030;2023-02-13T09:41:36;14.97;;;9.30;;
20397;SDS011;10358;49.590;11.030;2023-02-13T09:46:37;19.73;;;11.13;;
20397;SDS011;10358;49.590;11.030;2023-02-13T09:49:13;21.20;;;10.30;;
20397;SDS011;10358;49.590;11.030;2023-02-13T09:51:41;15.70;;;9.33;;
20397;SDS011;10358;49.590;11.030;2023-02-13T09:54:10;23.97;;;10.13;;
20397;SDS011;10358;49.590;11.030;2023-02-13T09:56:42;18.10;;;10.80;;
20397;SDS011;10358;49.590;11.030;2023-02-13T10:02:07;17.87;;;9.43;;
20397;SDS011;10358;49.590;11.030;2023-02-13T10:04:51;16.83;;;10.03;;
20397;SDS011;10358;49.590;11.030;2023-02-13T10:10:31;17.60;;;10.00;;
20397;SDS011;10358;49.590;11.030;2023-02-13T10:13:13;17.07;;;9.67;;
20397;SDS011;10358;49.590;11.030;2023-02-13T10:16:11;16.63;;;9.70;;
20397;SDS011;10358;49.590;11.030;2023-02-13T10:19:33;17.73;;;10.53;;
20397;SDS011;10358;49.590;11.030;2023-02-13T10:21:52;20.20;;;10.27;;
20397;SDS011;10358;49.590;11.030;2023-02-13T10:24:39;16.40;;;9.97;;
20397;SDS011;10358;49.590;11.030;2023-02-13T10:27:24;16.83;;;10.20;;
20397;SDS011;10358;49.590;11.030;2023-02-13T10:29:56;17.73;;;10.53;;
20397;SDS011;10358;49.590;11.030;2023-02-13T10:32:31;21.77;;;10.27;;
20397;SDS011;10358;49.590;11.030;2023-02-13T10:35:14;17.43;;;10.50;;
20397;SDS011;10358;49.590;11.030;2023-02-13T10:37:54;14.90;;;9.77;;
20397;SDS011;10358;49.590;11.030;2023-02-13T10:40:22;16.07;;;9.97;;
20397;SDS011;10358;49.590;11.030;2023-02-13T10:43:01;16.30;;;9.80;;
20397;SDS011;10358;49.590;11.030;2023-02-13T10:45:42;16.80;;;10.50;;
20397;SDS011;10358;49.590;11.030;2023-02-13T10:59:39;16.73;;;10.37;;
20397;SDS011;10358;49.590;11.030;2023-02-13T11:04:42;15.63;;;9.77;;
20397;SDS011;10358;49.590;11.030;2023-02-13T11:07:10;16.20;;;9.83;;
20397;SDS011;10358;49.590;11.030;2023-02-13T11:09:40;13.27;;;9.20;;
20397;SDS011;10358;49.590;11.030;2023-02-13T11:14:58;18.50;;;10.40;;
20397;SDS011;10358;49.590;11.030;2023-02-13T11:17:33;15.20;;;9.63;;
20397;SDS011;10358;49.590;11.030;2023-02-13T11:20:02;17.33;;;10.37;;
20397;SDS011;10358;49.590;11.030;2023-02-13T11:22:53;16.47;;;10.40;;
20397;SDS011;10358;49.590;11.030;2023-02-13T11:25:24;18.90;;;10.67;;
20397;SDS011;10358;49.590;11.030;2023-02-13T11:27:54;17.10;;;10.80;;
20397;SDS011;10358;49.590;11.030;2023-02-13T11:30:34;18.47;;;11.30;;
20397;SDS011;10358;49.590;11.030;2023-02-13T11:33:06;19.20;;;11.80;;
20397;SDS011;10358;49.590;11.030;2023-02-13T11:36:02;18.97;;;11.30;;
20397;SDS011;10358;49.590;11.030;2023-02-13T11:38:30;21.43;;;11.17;;
20397;SDS011;10358;49.590;11.030;2023-02-13T11:43:30;21.37;;;13.13;;
20397;SDS011;10358;49.590;11.030;2023-02-13T11:46:07;21.90;;;13.17;;
20397;SDS011;10358;49.590;11.030;2023-02-13T11:48:37;22.17;;;13.37;;
20397;SDS011;10358;49.590;11.030;2023-02-13T11:51:02;23.67;;;14.70;;
20397;SDS011;10358;49.590;11.030;2023-02-13T11:53:29;28.20;;;16.50;;
20397;SDS011;10358;49.590;11.030;2023-02-13T11:56:00;28.10;;;15.43;;
20397;SDS011;10358;49.590;11.030;2023-02-13T11:58:30;26.33;;;15.10;;
20397;SDS011;10358;49.590;11.030;2023-02-13T12:03:56;26.53;;;15.13;;
20397;SDS011;10358;49.590;11.030;2023-02-13T12:06:27;25.70;;;15.57;;
20397;SDS011;10358;49.590;11.030;2023-02-13T12:08:52;25.60;;;14.67;;
20397;SDS011;10358;49.590;11.030;2023-02-13T12:13:47;25.77;;;15.47;;
20397;SDS011;10358;49.590;11.030;2023-02-13T12:18:53;21.17;;;14.00;;
20397;SDS011;10358;49.590;11.030;2023-02-13T12:21:32;27.73;;;14.70;;
20397;SDS011;10358;49.590;11.030;2023-02-13T12:24:03;21.50;;;13.67;;
20397;SDS011;10358;49.590;11.030;2023-02-13T12:26:43;21.87;;;13.00;;
20397;SDS011;10358;49.590;11.030;2023-02-13T12:29:19;25.20;;;13.70;;
20397;SDS011;10358;49.590;11.030;2023-02-13T12:37:33;22.70;;;13.10;;
20397;SDS011;10358;49.590;11.030;2023-02-13T12:45:48;17.87;;;10.97;;
20397;SDS011;10358;49.590;11.030;2023-02-13T12:51:35;16.67;;;10.90;;
20397;SDS011;10358;49.590;11.030;2023-02-13T13:02:43;17.73;;;9.70;;
20397;SDS011;10358;49.590;11.030;2023-02-13T13:11:26;13.63;;;7.40;;
20397;SDS011;10358;49.590;11.030;2023-02-13T13:14:20;16.07;;;8.30;;
20397;SDS011;10358;49.590;11.030;2023-02-13T13:19:30;11.93;;;8.13;;
20397;SDS011;10358;49.590;11.030;2023-02-13T13:27:36;11.17;;;7.03;;
20397;SDS011;10358;49.590;11.030;2023-02-13T13:30:18;10.60;;;5.77;;
20397;SDS011;10358;49.590;11.030;2023-02-13T13:32:51;7.87;;;5.47;;
20397;SDS011;10358;49.590;11.030;2023-02-13T13:35:22;8.13;;;5.60;;
20397;SDS011;10358;49.590;11.030;2023-02-13T13:37:50;10.67;;;6.57;;
20397;SDS011;10358;49.590;11.030;2023-02-13T13:42:59;11.03;;;6.90;;
20397;SDS011;10358;49.590;11.030;2023-02-13T13:45:45;12.07;;;6.63;;
20397;SDS011;10358;49.590;11.030;2023-02-13T13:48:49;14.03;;;7.40;;
20397;SDS011;10358;49.590;11.030;2023-02-13T13:51:25;12.53;;;6.50;;
20397;SDS011;10358;49.590;11.030;2023-02-13T14:07:35;13.57;;;7.00;;
20397;SDS011;10358;49.590;11.030;2023-02-13T14:10:03;12.43;;;7.40;;
20397;SDS011;10358;49.590;11.030;2023-02-13T14:12:34;9.70;;;6.67;;
20397;SDS011;10358;49.590;11.030;2023-02-13T14:15:00;13.30;;;7.13;;
20397;SDS011;10358;49.590;11.030;2023-02-13T14:22:46;16.20;;;10.17;;
20397;SDS011;10358;49.590;11.030;2023-02-13T14:25:23;12.93;;;7.93;;
20397;SDS011;10358;49.590;11.030;2023-02-13T14:27:54;11.13;;;7.13;;
20397;SDS011;10358;49.590;11.030;2023-02-13T14:30:31;14.20;;;7.27;;
20397;SDS011;10358;49.590;11.030;2023-02-13T14:33:00;12.63;;;7.07;;
20397;SDS011;10358;49.590;11.030;2023-02-13T14:35:30;12.53;;;7.50;;
20397;SDS011;10358;49.590;11.030;2023-02-13T14:38:02;11.50;;;6.60;;
20397;SDS011;10358;49.590;11.030;2023-02-13T14:40:47;10.80;;;6.03;;
20397;SDS011;10358;49.590;11.030;2023-02-13T14:45:54;10.40;;;5.97;;
20397;SDS011;10358;49.590;11.030;2023-02-13T14:51:28;13.03;;;5.73;;
20397;SDS011;10358;49.590;11.030;2023-02-13T14:53:57;8.57;;;5.97;;
20397;SDS011;10358;49.590;11.030;2023-02-13T14:56:48;14.20;;;6.90;;
20397;SDS011;10358;49.590;11.030;2023-02-13T14:59:16;10.30;;;6.10;;
20397;SDS011;10358;49.590;11.030;2023-02-13T15:01:46;11.57;;;6.53;;
20397;SDS011;10358;49.590;11.030;2023-02-13T15:04:42;10.93;;;6.50;;
20397;SDS011;10358;49.590;11.030;2023-02-13T15:07:14;29.77;;;15.60;;
20397;SDS011;10358;49.590;11.030;2023-02-13T15:09:51;20.30;;;11.53;;
20397;SDS011;10358;49.590;11.030;2023-02-13T15:12:23;19.33;;;10.60;;
20397;SDS011;10358;49.590;11.030;2023-02-13T15:14:56;11.13;;;7.37;;
20397;SDS011;10358;49.590;11.030;2023-02-13T15:17:29;12.60;;;7.80;;
20397;SDS011;10358;49.590;11.030;2023-02-13T15:20:06;11.13;;;7.10;;
20397;SDS011;10358;49.590;11.030;2023-02-13T15:22:45;14.73;;;6.73;;
20397;SDS011;10358;49.590;11.030;2023-02-13T15:28:03;12.80;;;7.97;;
20397;SDS011;10358;49.590;11.030;2023-02-13T15:30:35;12.23;;;6.47;;
20397;SDS011;10358;49.590;11.030;2023-02-13T15:33:03;7.78;;;5.85;;
20397;SDS011;10358;49.590;11.030;2023-02-13T15:35:40;8.67;;;5.50;;
20397;SDS011;10358;49.590;11.030;2023-02-13T15:40:53;7.87;;;5.40;;
20397;SDS011;10358;49.590;11.030;2023-02-13T15:43:34;8.97;;;5.13;;
20397;SDS011;10358;49.590;11.030;2023-02-13T15:48:59;8.20;;;4.82;;
20397;SDS011;10358;49.590;11.030;2023-02-13T15:51:30;8.13;;;5.23;;
20397;SDS011;10358;49.590;11.030;2023-02-13T15:56:25;9.73;;;5.60;;
20397;SDS011;10358;49.590;11.030;2023-02-13T15:58:53;8.47;;;5.27;;
20397;SDS011;10358;49.590;11.030;2023-02-13T16:01:20;8.38;;;5.18;;
20397;SDS011;10358;49.590;11.030;2023-02-13T16:03:46;7.67;;;5.30;;
20397;SDS011;10358;49.590;11.030;2023-02-13T16:06:23;8.77;;;5.77;;
20397;SDS011;10358;49.590;11.030;2023-02-13T16:08:50;9.43;;;5.40;;
20397;SDS011;10358;49.590;11.030;2023-02-13T16:11:24;9.20;;;5.87;;
20397;SDS011;10358;49.590;11.030;2023-02-13T16:14:02;10.13;;;5.70;;
20397;SDS011;10358;49.590;11.030;2023-02-13T16:16:29;8.60;;;5.97;;
20397;SDS011;10358;49.590;11.030;2023-02-13T16:24:58;8.57;;;6.00;;
20397;SDS011;10358;49.590;11.030;2023-02-13T16:27:45;10.00;;;6.03;;
20397;SDS011;10358;49.590;11.030;2023-02-13T16:30:23;13.30;;;6.67;;
20397;SDS011;10358;49.590;11.030;2023-02-13T16:32:49;9.00;;;6.20;;
20397;SDS011;10358;49.590;11.030;2023-02-13T16:35:28;9.07;;;5.97;;
20397;SDS011;10358;49.590;11.030;2023-02-13T16:37:56;11.23;;;5.53;;
20397;SDS011;10358;49.590;11.030;2023-02-13T16:40:39;12.50;;;4.93;;
20397;SDS011;10358;49.590;11.030;2023-02-13T16:52:07;11.53;;;5.43;;
20397;SDS011;10358;49.590;11.030;2023-02-13T16:54:17;9.83;;;5.50;;
20397;SDS011;10358;49.590;11.030;2023-02-13T17:04:45;11.87;;;6.53;;
20397;SDS011;10358;49.590;11.030;2023-02-13T17:07:30;8.37;;;4.73;;
20397;SDS011;10358;49.590;11.030;2023-02-13T17:10:02;6.40;;;4.00;;
20397;SDS011;10358;49.590;11.030;2023-02-13T17:12:30;7.67;;;4.27;;
20397;SDS011;10358;49.590;11.030;2023-02-13T17:14:58;6.50;;;4.40;;
20397;SDS011;10358;49.590;11.030;2023-02-13T17:17:28;8.23;;;4.33;;
20397;SDS011;10358;49.590;11.030;2023-02-13T17:19:55;7.67;;;4.50;;
20397;SDS011;10358;49.590;11.030;2023-02-13T17:22:26;8.33;;;4.93;;
20397;SDS011;10358;49.590;11.030;2023-02-13T17:24:56;7.10;;;4.97;;
20397;SDS011;10358;49.590;11.030;2023-02-13T17:27:22;8.33;;;4.90;;
20397;SDS011;10358;49.590;11.030;2023-02-13T17:29:48;8.30;;;5.00;;
20397;SDS011;10358;49.590;11.030;2023-02-13T17:32:15;7.23;;;4.80;;